Gene Machine — WDF7123 — position and weather

sailwx.info

Track history (hours):
 
Tides and Currents Weather Stations Pressure Air Temp Water Temp Dewpoint Dewpoint Depression Visibility Wind Speed Wind Dir Waves Ship Positions

Gene Machine

More information available from US FCC via Universal Licensing System and Coast Guard Vessel Documentation Center.

Last reported at 2014-Jul-31 11:29 UTC. Time now 2014-Jul-31 11:38 UTC.
Position N 44°21' E 008°34'.

; draft 2.4 m.

Type: Pleasure craft. MMSI: 367481320.

Date/timePositionNaut miles runAvg speedWind from/ knotsBaromVisibWave heightAir tempDewpointWater temp
2014-Jul-31 11:29N 44°21' E 008°34'910.0
2014-Jul-31 10:33N 44°13' E 008°27'4016.1
2014-Jul-31 08:05N 43°47' E 007°46'916.9
2014-Jul-31 07:32N 43°45' E 007°33'5 5.6
2014-Jul-31 06:33N 43°44' E 007°26'0 0.0
2014-Jul-31 05:26N 43°44' E 007°26'0 0.0
2014-Jul-31 00:18N 43°44' E 007°26'0 0.0
2014-Jul-30 22:17N 43°44' E 007°26'0 0.0
2014-Jul-30 21:33N 43°44' E 007°26'0 0.0
2014-Jul-30 20:33N 43°44' E 007°26'0 0.0
2014-Jul-30 19:33N 43°44' E 007°26'0 0.0
2014-Jul-30 18:33N 43°44' E 007°26'0 0.0
2014-Jul-30 17:32N 43°44' E 007°26'  
2014-Jul-28 09:23N 43°39' E 007°16'7 8.2
2014-Jul-28 08:30N 43°35' E 007°07'0 0.0
2014-Jul-28 07:30N 43°35' E 007°07'0 0.0
2014-Jul-28 06:24N 43°35' E 007°07'0 0.0
2014-Jul-28 05:24N 43°35' E 007°07'0 0.0
2014-Jul-28 04:30N 43°35' E 007°07'0 0.0
2014-Jul-28 03:30N 43°35' E 007°07'0 0.0
2014-Jul-28 02:30N 43°35' E 007°07'0 0.0
2014-Jul-28 01:30N 43°35' E 007°07'0 0.0
2014-Jul-28 00:30N 43°35' E 007°07'0 0.0
2014-Jul-27 23:30N 43°35' E 007°07'0 0.0
2014-Jul-27 22:30N 43°35' E 007°07'0 0.0
2014-Jul-27 21:30N 43°35' E 007°07'0 0.0
2014-Jul-27 20:30N 43°35' E 007°07'0 0.0
2014-Jul-27 19:30N 43°35' E 007°07'0 0.0
2014-Jul-27 18:30N 43°35' E 007°07'0 0.0
2014-Jul-27 17:30N 43°35' E 007°07'0 0.0
2014-Jul-27 16:18N 43°35' E 007°07'0 0.0
2014-Jul-27 15:24N 43°35' E 007°07'0 0.0
2014-Jul-27 14:30N 43°35' E 007°07'0 0.0
2014-Jul-27 13:30N 43°35' E 007°07'0 0.0
2014-Jul-27 12:30N 43°35' E 007°07'0 0.0
2014-Jul-27 11:30N 43°35' E 007°07'0 0.0
2014-Jul-27 10:30N 43°35' E 007°07'0 0.0
2014-Jul-27 09:30N 43°35' E 007°07'0 0.0
2014-Jul-27 08:30N 43°35' E 007°07'0 0.0
2014-Jul-27 07:30N 43°35' E 007°07'0 0.0
2014-Jul-27 06:30N 43°35' E 007°07'0 0.0
2014-Jul-27 05:30N 43°35' E 007°07'0 0.0
2014-Jul-27 04:24N 43°35' E 007°07'0 0.0
2014-Jul-27 03:30N 43°35' E 007°07'0 0.0
2014-Jul-27 02:24N 43°35' E 007°07'0 0.0
2014-Jul-27 01:30N 43°35' E 007°07'0 0.0
2014-Jul-27 00:30N 43°35' E 007°07'0 0.0
2014-Jul-26 23:30N 43°35' E 007°07'0 0.0
2014-Jul-26 22:30N 43°35' E 007°07'0 0.0
2014-Jul-26 21:24N 43°35' E 007°07'0 0.0
2014-Jul-26 20:30N 43°35' E 007°07'0 0.0
2014-Jul-26 19:30N 43°35' E 007°07'0 0.0
2014-Jul-26 18:30N 43°35' E 007°07'0 0.0
2014-Jul-26 17:30N 43°35' E 007°07'0 0.0
2014-Jul-26 16:30N 43°35' E 007°07'0 0.0
2014-Jul-26 15:30N 43°35' E 007°07'0 0.0
2014-Jul-26 14:24N 43°35' E 007°07'0 0.0
2014-Jul-26 13:24N 43°35' E 007°07'0 0.0
2014-Jul-26 12:24N 43°35' E 007°07'0 0.0
2014-Jul-26 11:24N 43°35' E 007°07'0 0.0
2014-Jul-26 10:33N 43°35' E 007°07'6 5.6
2014-Jul-26 09:33N 43°30' E 007°04'3 2.7
2014-Jul-26 08:33N 43°32' E 007°02'0 0.0
2014-Jul-26 07:34N 43°32' E 007°02'0 0.0
2014-Jul-26 06:33N 43°32' E 007°02'0 0.0
2014-Jul-26 05:33N 43°32' E 007°02'0 0.0
2014-Jul-26 04:30N 43°32' E 007°02'0 0.0
2014-Jul-26 03:33N 43°32' E 007°02'0 0.0
2014-Jul-26 02:28N 43°32' E 007°02'0 0.0
2014-Jul-26 01:32N 43°32' E 007°02'0 0.0
2014-Jul-26 00:30N 43°32' E 007°02'0 0.0
2014-Jul-25 23:32N 43°32' E 007°02'0 0.0
2014-Jul-25 22:26N 43°32' E 007°02'0 0.0
2014-Jul-25 21:30N 43°32' E 007°02'0 0.0
2014-Jul-25 17:11N 43°32' E 007°02'0 0.0
2014-Jul-25 16:33N 43°32' E 007°02'0 0.0
2014-Jul-25 15:26N 43°32' E 007°02'0 0.0
2014-Jul-25 14:29N 43°32' E 007°02'0 0.0
2014-Jul-25 13:33N 43°32' E 007°02'0 0.0
2014-Jul-25 12:33N 43°32' E 007°02'0 0.0
2014-Jul-25 11:33N 43°32' E 007°02'0 0.3
2014-Jul-25 10:33N 43°32' E 007°01'1212.1
2014-Jul-25 09:33N 43°23' E 006°50'1111.3
2014-Jul-25 08:33N 43°16' E 006°38'0 0.0
2014-Jul-25 07:23N 43°16' E 006°38'0 0.0
2014-Jul-25 06:23N 43°16' E 006°38'0 0.0
2014-Jul-25 05:23N 43°16' E 006°38'0 0.0
2014-Jul-25 04:29N 43°16' E 006°38'0 0.0
2014-Jul-25 03:32N 43°16' E 006°38'0 0.0
2014-Jul-25 02:32N 43°16' E 006°38'0 0.0
2014-Jul-25 01:32N 43°16' E 006°38'0 0.0
2014-Jul-25 00:32N 43°16' E 006°38'0 0.0
2014-Jul-24 23:32N 43°16' E 006°38'0 0.0
2014-Jul-24 22:32N 43°16' E 006°38'0 0.0
2014-Jul-24 21:32N 43°16' E 006°38'0 0.0
2014-Jul-24 20:32N 43°16' E 006°38'0 0.0
2014-Jul-24 19:32N 43°16' E 006°38'0 0.0
2014-Jul-24 18:32N 43°16' E 006°38'0 0.0
2014-Jul-24 17:32N 43°16' E 006°38'0 0.0
2014-Jul-24 16:32N 43°16' E 006°38'0 0.0
2014-Jul-24 15:32N 43°16' E 006°38'0 0.0
2014-Jul-24 14:26N 43°16' E 006°38'0 0.0
2014-Jul-24 13:23N 43°16' E 006°38'0 0.0
2014-Jul-24 12:29N 43°16' E 006°38'0 0.0
2014-Jul-24 11:32N 43°16' E 006°38'0 0.0
2014-Jul-24 10:32N 43°16' E 006°38'0 0.0
2014-Jul-24 09:32N 43°16' E 006°38'0 0.0
2014-Jul-24 08:32N 43°16' E 006°38'0 0.0
2014-Jul-24 07:32N 43°16' E 006°38'0 0.0
2014-Jul-24 06:29N 43°16' E 006°38'0 0.0
2014-Jul-24 05:29N 43°16' E 006°38'0 0.0
2014-Jul-24 04:29N 43°16' E 006°38'0 0.0
2014-Jul-24 03:26N 43°16' E 006°38'0 0.0
2014-Jul-24 02:32N 43°16' E 006°38'0 0.0
2014-Jul-24 01:32N 43°16' E 006°38'0 0.0
2014-Jul-24 00:32N 43°16' E 006°38'0 0.0
2014-Jul-23 23:32N 43°16' E 006°38'0 0.0
2014-Jul-23 22:32N 43°16' E 006°38'0 0.0
2014-Jul-23 21:32N 43°16' E 006°38'0 0.0
2014-Jul-23 20:26N 43°16' E 006°38'0 0.0
2014-Jul-23 19:32N 43°16' E 006°38'0 0.0
2014-Jul-23 18:23N 43°16' E 006°38'0 0.0
2014-Jul-23 17:32N 43°16' E 006°38'0 0.0
2014-Jul-23 16:32N 43°16' E 006°38'0 0.0
2014-Jul-23 15:17N 43°16' E 006°38'0 0.0
2014-Jul-23 14:26N 43°16' E 006°38'0 0.0
2014-Jul-23 13:26N 43°16' E 006°38'0 0.0
2014-Jul-23 12:32N 43°16' E 006°38'0 0.0
2014-Jul-23 11:33N 43°16' E 006°38'1 0.8
2014-Jul-23 10:33N 43°17' E 006°37'1313.4
2014-Jul-23 09:33N 43°24' E 006°53'1616.4
2014-Jul-23 08:33N 43°34' E 007°10'9 4.5
2014-Jul-23 06:32N 43°42' E 007°17'0 0.0
2014-Jul-23 05:32N 43°42' E 007°17'0 0.0
2014-Jul-23 04:32N 43°42' E 007°17'0 0.0
2014-Jul-23 03:20N 43°42' E 007°17'0 0.0
2014-Jul-23 02:32N 43°42' E 007°17'0 0.0
2014-Jul-23 01:32N 43°42' E 007°17'0 0.0
2014-Jul-23 00:08N 43°42' E 007°17'0 0.0
2014-Jul-22 23:32N 43°42' E 007°17'0 0.0
2014-Jul-22 22:32N 43°42' E 007°17'0 0.0
2014-Jul-22 21:14N 43°42' E 007°17'0 0.0
2014-Jul-22 20:32N 43°42' E 007°17'0 0.0
2014-Jul-22 19:32N 43°42' E 007°17'0 0.0
2014-Jul-22 18:32N 43°42' E 007°17'0 0.0
2014-Jul-22 16:20N 43°42' E 007°17'0 0.0
2014-Jul-22 15:32N 43°42' E 007°17'0 0.0
2014-Jul-22 14:32N 43°42' E 007°17'0 0.0
2014-Jul-22 13:32N 43°42' E 007°17'0 0.0
2014-Jul-22 12:14N 43°42' E 007°17'0 0.0
2014-Jul-22 11:32N 43°42' E 007°17'0 0.0
2014-Jul-22 10:32N 43°42' E 007°17'0 0.0
2014-Jul-22 09:20N 43°42' E 007°17'0 0.0
2014-Jul-22 08:26N 43°42' E 007°17'0 0.0
2014-Jul-22 07:20N 43°42' E 007°17'0 0.0
2014-Jul-22 06:32N 43°42' E 007°17'0 0.0
2014-Jul-22 05:32N 43°42' E 007°17'0 0.0
2014-Jul-22 04:26N 43°42' E 007°17'0 0.0
2014-Jul-22 03:32N 43°42' E 007°17'0 0.0
2014-Jul-22 02:32N 43°42' E 007°17'0 0.0
2014-Jul-22 01:14N 43°42' E 007°17'0 0.0
2014-Jul-21 23:14N 43°42' E 007°17'0 0.0
2014-Jul-21 22:32N 43°42' E 007°17'0 0.0
2014-Jul-21 21:32N 43°42' E 007°17'0 0.0
2014-Jul-21 20:32N 43°42' E 007°17'0 0.0
2014-Jul-21 19:14N 43°42' E 007°17'0 0.0
2014-Jul-21 18:20N 43°42' E 007°17'0 0.0
2014-Jul-21 17:32N 43°42' E 007°17'0 0.0
2014-Jul-21 15:26N 43°42' E 007°17'0 0.0
2014-Jul-21 14:32N 43°42' E 007°17'0 0.0
2014-Jul-21 13:08N 43°42' E 007°17'  
Track history (hours):
 
Tides and Currents Weather Stations Pressure Air Temp Water Temp Dewpoint Dewpoint Depression Visibility Wind Speed Wind Dir Waves Ship Positions

Gene Machine

More information available from US FCC via Universal Licensing System and Coast Guard Vessel Documentation Center.

Last reported at 2014-Jul-31 11:29 UTC. Time now 2014-Jul-31 11:38 UTC.
Position N 44°21' E 008°34'.

; draft 2.4 m.

Type: Pleasure craft. MMSI: 367481320.

Date/timePositionNaut miles runAvg speedWind from/ knotsBaromVisibWave heightAir tempDewpointWater temp
2014-Jul-31 11:29N 44°21' E 008°34'910.0
2014-Jul-31 10:33N 44°13' E 008°27'4016.1
2014-Jul-31 08:05N 43°47' E 007°46'916.9
2014-Jul-31 07:32N 43°45' E 007°33'5 5.6
2014-Jul-31 06:33N 43°44' E 007°26'0 0.0
2014-Jul-31 05:26N 43°44' E 007°26'0 0.0
2014-Jul-31 00:18N 43°44' E 007°26'0 0.0
2014-Jul-30 22:17N 43°44' E 007°26'0 0.0
2014-Jul-30 21:33N 43°44' E 007°26'0 0.0
2014-Jul-30 20:33N 43°44' E 007°26'0 0.0
2014-Jul-30 19:33N 43°44' E 007°26'0 0.0
2014-Jul-30 18:33N 43°44' E 007°26'0 0.0
2014-Jul-30 17:32N 43°44' E 007°26'  
2014-Jul-28 09:23N 43°39' E 007°16'7 8.2
2014-Jul-28 08:30N 43°35' E 007°07'0 0.0
2014-Jul-28 07:30N 43°35' E 007°07'0 0.0
2014-Jul-28 06:24N 43°35' E 007°07'0 0.0
2014-Jul-28 05:24N 43°35' E 007°07'0 0.0
2014-Jul-28 04:30N 43°35' E 007°07'0 0.0
2014-Jul-28 03:30N 43°35' E 007°07'0 0.0
2014-Jul-28 02:30N 43°35' E 007°07'0 0.0
2014-Jul-28 01:30N 43°35' E 007°07'0 0.0
2014-Jul-28 00:30N 43°35' E 007°07'0 0.0
2014-Jul-27 23:30N 43°35' E 007°07'0 0.0
2014-Jul-27 22:30N 43°35' E 007°07'0 0.0
2014-Jul-27 21:30N 43°35' E 007°07'0 0.0
2014-Jul-27 20:30N 43°35' E 007°07'0 0.0
2014-Jul-27 19:30N 43°35' E 007°07'0 0.0
2014-Jul-27 18:30N 43°35' E 007°07'0 0.0
2014-Jul-27 17:30N 43°35' E 007°07'0 0.0
2014-Jul-27 16:18N 43°35' E 007°07'0 0.0
2014-Jul-27 15:24N 43°35' E 007°07'0 0.0
2014-Jul-27 14:30N 43°35' E 007°07'0 0.0
2014-Jul-27 13:30N 43°35' E 007°07'0 0.0
2014-Jul-27 12:30N 43°35' E 007°07'0 0.0
2014-Jul-27 11:30N 43°35' E 007°07'0 0.0
2014-Jul-27 10:30N 43°35' E 007°07'0 0.0
2014-Jul-27 09:30N 43°35' E 007°07'0 0.0
2014-Jul-27 08:30N 43°35' E 007°07'0 0.0
2014-Jul-27 07:30N 43°35' E 007°07'0 0.0
2014-Jul-27 06:30N 43°35' E 007°07'0 0.0
2014-Jul-27 05:30N 43°35' E 007°07'0 0.0
2014-Jul-27 04:24N 43°35' E 007°07'0 0.0
2014-Jul-27 03:30N 43°35' E 007°07'0 0.0
2014-Jul-27 02:24N 43°35' E 007°07'0 0.0
2014-Jul-27 01:30N 43°35' E 007°07'0 0.0
2014-Jul-27 00:30N 43°35' E 007°07'0 0.0
2014-Jul-26 23:30N 43°35' E 007°07'0 0.0
2014-Jul-26 22:30N 43°35' E 007°07'0 0.0
2014-Jul-26 21:24N 43°35' E 007°07'0 0.0
2014-Jul-26 20:30N 43°35' E 007°07'0 0.0
2014-Jul-26 19:30N 43°35' E 007°07'0 0.0
2014-Jul-26 18:30N 43°35' E 007°07'0 0.0
2014-Jul-26 17:30N 43°35' E 007°07'0 0.0
2014-Jul-26 16:30N 43°35' E 007°07'0 0.0
2014-Jul-26 15:30N 43°35' E 007°07'0 0.0
2014-Jul-26 14:24N 43°35' E 007°07'0 0.0
2014-Jul-26 13:24N 43°35' E 007°07'0 0.0
2014-Jul-26 12:24N 43°35' E 007°07'0 0.0
2014-Jul-26 11:24N 43°35' E 007°07'0 0.0
2014-Jul-26 10:33N 43°35' E 007°07'6 5.6
2014-Jul-26 09:33N 43°30' E 007°04'3 2.7
2014-Jul-26 08:33N 43°32' E 007°02'0 0.0
2014-Jul-26 07:34N 43°32' E 007°02'0 0.0
2014-Jul-26 06:33N 43°32' E 007°02'0 0.0
2014-Jul-26 05:33N 43°32' E 007°02'0 0.0
2014-Jul-26 04:30N 43°32' E 007°02'0 0.0
2014-Jul-26 03:33N 43°32' E 007°02'0 0.0
2014-Jul-26 02:28N 43°32' E 007°02'0 0.0
2014-Jul-26 01:32N 43°32' E 007°02'0 0.0
2014-Jul-26 00:30N 43°32' E 007°02'0 0.0
2014-Jul-25 23:32N 43°32' E 007°02'0 0.0
2014-Jul-25 22:26N 43°32' E 007°02'0 0.0
2014-Jul-25 21:30N 43°32' E 007°02'0 0.0
2014-Jul-25 17:11N 43°32' E 007°02'0 0.0
2014-Jul-25 16:33N 43°32' E 007°02'0 0.0
2014-Jul-25 15:26N 43°32' E 007°02'0 0.0
2014-Jul-25 14:29N 43°32' E 007°02'0 0.0
2014-Jul-25 13:33N 43°32' E 007°02'0 0.0
2014-Jul-25 12:33N 43°32' E 007°02'0 0.0
2014-Jul-25 11:33N 43°32' E 007°02'0 0.3
2014-Jul-25 10:33N 43°32' E 007°01'1212.1
2014-Jul-25 09:33N 43°23' E 006°50'1111.3
2014-Jul-25 08:33N 43°16' E 006°38'0 0.0
2014-Jul-25 07:23N 43°16' E 006°38'0 0.0
2014-Jul-25 06:23N 43°16' E 006°38'0 0.0
2014-Jul-25 05:23N 43°16' E 006°38'0 0.0
2014-Jul-25 04:29N 43°16' E 006°38'0 0.0
2014-Jul-25 03:32N 43°16' E 006°38'0 0.0
2014-Jul-25 02:32N 43°16' E 006°38'0 0.0
2014-Jul-25 01:32N 43°16' E 006°38'0 0.0
2014-Jul-25 00:32N 43°16' E 006°38'0 0.0
2014-Jul-24 23:32N 43°16' E 006°38'0 0.0
2014-Jul-24 22:32N 43°16' E 006°38'0 0.0
2014-Jul-24 21:32N 43°16' E 006°38'0 0.0
2014-Jul-24 20:32N 43°16' E 006°38'0 0.0
2014-Jul-24 19:32N 43°16' E 006°38'0 0.0
2014-Jul-24 18:32N 43°16' E 006°38'0 0.0
2014-Jul-24 17:32N 43°16' E 006°38'0 0.0
2014-Jul-24 16:32N 43°16' E 006°38'0 0.0
2014-Jul-24 15:32N 43°16' E 006°38'0 0.0
2014-Jul-24 14:26N 43°16' E 006°38'0 0.0
2014-Jul-24 13:23N 43°16' E 006°38'0 0.0
2014-Jul-24 12:29N 43°16' E 006°38'0 0.0
2014-Jul-24 11:32N 43°16' E 006°38'0 0.0
2014-Jul-24 10:32N 43°16' E 006°38'0 0.0
2014-Jul-24 09:32N 43°16' E 006°38'0 0.0
2014-Jul-24 08:32N 43°16' E 006°38'0 0.0
2014-Jul-24 07:32N 43°16' E 006°38'0 0.0
2014-Jul-24 06:29N 43°16' E 006°38'0 0.0
2014-Jul-24 05:29N 43°16' E 006°38'0 0.0
2014-Jul-24 04:29N 43°16' E 006°38'0 0.0
2014-Jul-24 03:26N 43°16' E 006°38'0 0.0
2014-Jul-24 02:32N 43°16' E 006°38'0 0.0
2014-Jul-24 01:32N 43°16' E 006°38'0 0.0
2014-Jul-24 00:32N 43°16' E 006°38'0 0.0
2014-Jul-23 23:32N 43°16' E 006°38'0 0.0
2014-Jul-23 22:32N 43°16' E 006°38'0 0.0
2014-Jul-23 21:32N 43°16' E 006°38'0 0.0
2014-Jul-23 20:26N 43°16' E 006°38'0 0.0
2014-Jul-23 19:32N 43°16' E 006°38'0 0.0
2014-Jul-23 18:23N 43°16' E 006°38'0 0.0
2014-Jul-23 17:32N 43°16' E 006°38'0 0.0
2014-Jul-23 16:32N 43°16' E 006°38'0 0.0
2014-Jul-23 15:17N 43°16' E 006°38'0 0.0
2014-Jul-23 14:26N 43°16' E 006°38'0 0.0
2014-Jul-23 13:26N 43°16' E 006°38'0 0.0
2014-Jul-23 12:32N 43°16' E 006°38'0 0.0
2014-Jul-23 11:33N 43°16' E 006°38'1 0.8
2014-Jul-23 10:33N 43°17' E 006°37'1313.4
2014-Jul-23 09:33N 43°24' E 006°53'1616.4
2014-Jul-23 08:33N 43°34' E 007°10'9 4.5
2014-Jul-23 06:32N 43°42' E 007°17'0 0.0
2014-Jul-23 05:32N 43°42' E 007°17'0 0.0
2014-Jul-23 04:32N 43°42' E 007°17'0 0.0
2014-Jul-23 03:20N 43°42' E 007°17'0 0.0
2014-Jul-23 02:32N 43°42' E 007°17'0 0.0
2014-Jul-23 01:32N 43°42' E 007°17'0 0.0
2014-Jul-23 00:08N 43°42' E 007°17'0 0.0
2014-Jul-22 23:32N 43°42' E 007°17'0 0.0
2014-Jul-22 22:32N 43°42' E 007°17'0 0.0
2014-Jul-22 21:14N 43°42' E 007°17'0 0.0
2014-Jul-22 20:32N 43°42' E 007°17'0 0.0
2014-Jul-22 19:32N 43°42' E 007°17'0 0.0
2014-Jul-22 18:32N 43°42' E 007°17'0 0.0
2014-Jul-22 16:20N 43°42' E 007°17'0 0.0
2014-Jul-22 15:32N 43°42' E 007°17'0 0.0
2014-Jul-22 14:32N 43°42' E 007°17'0 0.0
2014-Jul-22 13:32N 43°42' E 007°17'0 0.0
2014-Jul-22 12:14N 43°42' E 007°17'0 0.0
2014-Jul-22 11:32N 43°42' E 007°17'0 0.0
2014-Jul-22 10:32N 43°42' E 007°17'0 0.0
2014-Jul-22 09:20N 43°42' E 007°17'0 0.0
2014-Jul-22 08:26N 43°42' E 007°17'0 0.0
2014-Jul-22 07:20N 43°42' E 007°17'0 0.0
2014-Jul-22 06:32N 43°42' E 007°17'0 0.0
2014-Jul-22 05:32N 43°42' E 007°17'0 0.0
2014-Jul-22 04:26N 43°42' E 007°17'0 0.0
2014-Jul-22 03:32N 43°42' E 007°17'0 0.0
2014-Jul-22 02:32N 43°42' E 007°17'0 0.0
2014-Jul-22 01:14N 43°42' E 007°17'0 0.0
2014-Jul-21 23:14N 43°42' E 007°17'0 0.0
2014-Jul-21 22:32N 43°42' E 007°17'0 0.0
2014-Jul-21 21:32N 43°42' E 007°17'0 0.0
2014-Jul-21 20:32N 43°42' E 007°17'0 0.0
2014-Jul-21 19:14N 43°42' E 007°17'0 0.0
2014-Jul-21 18:20N 43°42' E 007°17'0 0.0
2014-Jul-21 17:32N 43°42' E 007°17'0 0.0
2014-Jul-21 15:26N 43°42' E 007°17'0 0.0
2014-Jul-21 14:32N 43°42' E 007°17'0 0.0
2014-Jul-21 13:08N 43°42' E 007°17'  

Dump ship's entire track history